This is the latest recevied weather packets stored in our database for station/object OK1TBM-13. If no packets are shown the sender has not sent any weather packets the latest 10 day(s).
| Time | Temp. | Humidity | Pressure | Rain* | Wind** | Luminosity | Snow |
|---|---|---|---|---|---|---|---|
| 1787815507 | 21.67° C | 65% | 1017.6 hPa | 0 mm | - | 370 W/m² | - |
| 1787814902 | 21.67° C | 66% | 1017.6 hPa | 0 mm | - | 346 W/m² | - |
| 1787814601 | 20.56° C | 68% | 1018 hPa | 0 mm | - | 328 W/m² | - |
| 1787814301 | 20.56° C | 69% | 1018 hPa | 0 mm | - | 309 W/m² | - |
| 1787814001 | 20° C | 70% | 1017.6 hPa | 0 mm | - | 288 W/m² | - |
| 1787813701 | 19.44° C | 70% | 1017.6 hPa | 0 mm | - | 284 W/m² | - |
| 1787813401 | 19.44° C | 71% | 1017.6 hPa | 0 mm | - | 262 W/m² | - |
| 1787813101 | 20° C | 69% | 1017.6 hPa | 0 mm | - | 151 W/m² | - |
| 1787812801 | 20° C | 69% | 1017.6 hPa | 0 mm | - | 261 W/m² | - |
| 1787812501 | 20° C | 69% | 1017.6 hPa | 0 mm | - | 241 W/m² | - |
| 1787812201 | 19.44° C | 72% | 1017.6 hPa | 0 mm | - | 115 W/m² | - |
| 1787811906 | 18.89° C | 74% | 1017.3 hPa | 0 mm | - | 236 W/m² | - |
| 1787811301 | 17.78° C | 79% | 1017.3 hPa | 0 mm | - | 92 W/m² | - |
| 1787811001 | 17.78° C | 79% | 1017.6 hPa | 0 mm | - | 180 W/m² | - |
| 1787810701 | 17.22° C | 80% | 1017.6 hPa | 0 mm | - | 118 W/m² | - |
| 1787810401 | 17.22° C | 81% | 1017.6 hPa | 0 mm | - | 153 W/m² | - |
| 1787810102 | 16.67° C | 83% | 1017.6 hPa | 0 mm | - | 115 W/m² | - |
| 1787809802 | 16.67° C | 83% | 1017.6 hPa | 0 mm | - | 110 W/m² | - |
| 1787809502 | 16.11° C | 84% | 1017.3 hPa | 0 mm | - | 82 W/m² | - |
| 1787809201 | 16.67° C | 84% | 1017.3 hPa | 0 mm | - | 108 W/m² | - |
| 1787808901 | 16.11° C | 84% | 1017.6 hPa | 0 mm | - | 100 W/m² | - |
| 1787808601 | 15.56° C | 86% | 1017.6 hPa | 0 mm | - | 89 W/m² | - |
| 1787808305 | 15° C | 89% | 1017.3 hPa | 0 mm | - | 72 W/m² | - |
| 1787807701 | 14.44° C | 94% | 1017.3 hPa | 0 mm | - | 49 W/m² | - |
| 1787807401 | 13.89° C | 96% | 1017.3 hPa | 0 mm | - | 49 W/m² | - |
* Rain latest hour (hover to see other rain measurements)
** Current wind speed in m/s (hover to see current wind gust speed)